Terminal Aerodrome Forecast
Issued by NWS Brownsville, TX

Home | Current Version | Previous Version | Text Only | Print | Product List | Glossary On
Versions: 1 2 3 4 5 6 7 8 9 10 11 12 13 14 15 16 17 18 19 20 21 22 23 24 25 26 27 28 29 30 31 32
000
FTUS44 KBRO 222340
TAFHRL
TAF
KHRL 222340Z 2300/2324 14012KT P6SM FEW020 SCT250
     FM230800 13009KT P6SM BKN020
     FM231400 14015G21KT P6SM VCSH SCT030 BKN100
     FM231800 15018G24KT P6SM SCT040 BKN100=

USA.gov is the U.S. government's official web portal to all federal, state and local government web resources and services.